sensor_id;sensor_type;location;lat;lon;timestamp;P1;durP1;ratioP1;P2;durP2;ratioP2
37677;SDS011;23517;50.390;8.616;2024-02-21T00:01:21;10.43;;;4.10;;
37677;SDS011;23517;50.390;8.616;2024-02-21T00:03:49;12.57;;;5.18;;
37677;SDS011;23517;50.390;8.616;2024-02-21T00:06:15;11.73;;;3.63;;
37677;SDS011;23517;50.390;8.616;2024-02-21T00:08:42;13.15;;;4.93;;
37677;SDS011;23517;50.390;8.616;2024-02-21T00:11:09;13.40;;;4.90;;
37677;SDS011;23517;50.390;8.616;2024-02-21T00:13:36;11.05;;;4.22;;
37677;SDS011;23517;50.390;8.616;2024-02-21T00:16:03;11.38;;;4.55;;
37677;SDS011;23517;50.390;8.616;2024-02-21T00:18:30;15.70;;;5.05;;
37677;SDS011;23517;50.390;8.616;2024-02-21T00:20:57;11.73;;;4.72;;
37677;SDS011;23517;50.390;8.616;2024-02-21T00:23:23;12.95;;;5.80;;
37677;SDS011;23517;50.390;8.616;2024-02-21T00:25:50;13.18;;;4.15;;
37677;SDS011;23517;50.390;8.616;2024-02-21T00:28:17;18.40;;;4.40;;
37677;SDS011;23517;50.390;8.616;2024-02-21T00:30:44;13.13;;;4.43;;
37677;SDS011;23517;50.390;8.616;2024-02-21T00:33:11;13.20;;;5.57;;
37677;SDS011;23517;50.390;8.616;2024-02-21T00:35:38;15.23;;;6.40;;
37677;SDS011;23517;50.390;8.616;2024-02-21T00:38:07;19.17;;;8.82;;
37677;SDS011;23517;50.390;8.616;2024-02-21T00:40:35;24.13;;;9.82;;
37677;SDS011;23517;50.390;8.616;2024-02-21T00:43:01;15.65;;;6.60;;
37677;SDS011;23517;50.390;8.616;2024-02-21T00:45:29;23.90;;;9.45;;
37677;SDS011;23517;50.390;8.616;2024-02-21T00:47:55;24.58;;;11.18;;
37677;SDS011;23517;50.390;8.616;2024-02-21T00:50:22;15.23;;;6.75;;
37677;SDS011;23517;50.390;8.616;2024-02-21T00:52:49;12.73;;;4.65;;
37677;SDS011;23517;50.390;8.616;2024-02-21T00:55:16;14.88;;;5.20;;
37677;SDS011;23517;50.390;8.616;2024-02-21T00:57:42;12.02;;;5.03;;
37677;SDS011;23517;50.390;8.616;2024-02-21T01:00:09;15.35;;;4.55;;
37677;SDS011;23517;50.390;8.616;2024-02-21T01:02:36;13.65;;;4.22;;
37677;SDS011;23517;50.390;8.616;2024-02-21T01:05:03;10.27;;;4.00;;
37677;SDS011;23517;50.390;8.616;2024-02-21T01:07:30;11.65;;;4.28;;
37677;SDS011;23517;50.390;8.616;2024-02-21T01:10:00;10.65;;;4.32;;
37677;SDS011;23517;50.390;8.616;2024-02-21T01:12:27;8.93;;;3.63;;
37677;SDS011;23517;50.390;8.616;2024-02-21T01:14:53;13.05;;;4.45;;
37677;SDS011;23517;50.390;8.616;2024-02-21T01:17:20;11.13;;;3.80;;
37677;SDS011;23517;50.390;8.616;2024-02-21T01:19:47;8.25;;;3.45;;
37677;SDS011;23517;50.390;8.616;2024-02-21T01:22:14;12.98;;;3.78;;
37677;SDS011;23517;50.390;8.616;2024-02-21T01:24:42;9.90;;;4.03;;
37677;SDS011;23517;50.390;8.616;2024-02-21T01:27:10;9.00;;;3.33;;
37677;SDS011;23517;50.390;8.616;2024-02-21T01:29:37;14.07;;;3.95;;
37677;SDS011;23517;50.390;8.616;2024-02-21T01:32:04;13.68;;;4.07;;
37677;SDS011;23517;50.390;8.616;2024-02-21T01:34:31;10.85;;;4.50;;
37677;SDS011;23517;50.390;8.616;2024-02-21T01:36:58;14.63;;;3.92;;
37677;SDS011;23517;50.390;8.616;2024-02-21T01:39:25;10.82;;;3.92;;
37677;SDS011;23517;50.390;8.616;2024-02-21T01:41:52;12.70;;;4.10;;
37677;SDS011;23517;50.390;8.616;2024-02-21T01:44:19;12.85;;;4.22;;
37677;SDS011;23517;50.390;8.616;2024-02-21T01:46:46;13.45;;;4.85;;
37677;SDS011;23517;50.390;8.616;2024-02-21T01:49:13;10.98;;;3.88;;
37677;SDS011;23517;50.390;8.616;2024-02-21T01:51:40;13.88;;;4.18;;
37677;SDS011;23517;50.390;8.616;2024-02-21T01:54:09;9.85;;;4.13;;
37677;SDS011;23517;50.390;8.616;2024-02-21T01:56:39;9.35;;;3.80;;
37677;SDS011;23517;50.390;8.616;2024-02-21T01:59:06;12.48;;;4.10;;
37677;SDS011;23517;50.390;8.616;2024-02-21T02:01:33;13.15;;;4.28;;
37677;SDS011;23517;50.390;8.616;2024-02-21T02:04:00;10.18;;;3.88;;
37677;SDS011;23517;50.390;8.616;2024-02-21T02:06:27;11.02;;;4.07;;
37677;SDS011;23517;50.390;8.616;2024-02-21T02:08:53;11.57;;;4.30;;
37677;SDS011;23517;50.390;8.616;2024-02-21T02:11:20;9.30;;;4.10;;
37677;SDS011;23517;50.390;8.616;2024-02-21T02:13:48;12.20;;;4.68;;
37677;SDS011;23517;50.390;8.616;2024-02-21T02:16:15;10.95;;;3.75;;
37677;SDS011;23517;50.390;8.616;2024-02-21T02:18:43;12.98;;;3.60;;
37677;SDS011;23517;50.390;8.616;2024-02-21T02:21:14;10.65;;;4.10;;
37677;SDS011;23517;50.390;8.616;2024-02-21T02:23:56;8.43;;;3.58;;
37677;SDS011;23517;50.390;8.616;2024-02-21T02:26:23;14.13;;;4.28;;
37677;SDS011;23517;50.390;8.616;2024-02-21T02:28:50;12.35;;;3.70;;
37677;SDS011;23517;50.390;8.616;2024-02-21T02:31:17;11.45;;;4.50;;
37677;SDS011;23517;50.390;8.616;2024-02-21T02:33:43;9.55;;;4.00;;
37677;SDS011;23517;50.390;8.616;2024-02-21T02:36:10;9.60;;;3.55;;
37677;SDS011;23517;50.390;8.616;2024-02-21T02:38:37;11.05;;;4.10;;
37677;SDS011;23517;50.390;8.616;2024-02-21T02:41:04;8.88;;;3.35;;
37677;SDS011;23517;50.390;8.616;2024-02-21T02:43:31;12.63;;;3.85;;
37677;SDS011;23517;50.390;8.616;2024-02-21T02:45:58;7.82;;;3.50;;
37677;SDS011;23517;50.390;8.616;2024-02-21T02:48:24;11.27;;;3.78;;
37677;SDS011;23517;50.390;8.616;2024-02-21T02:50:51;9.90;;;4.00;;
37677;SDS011;23517;50.390;8.616;2024-02-21T02:53:18;10.93;;;3.80;;
37677;SDS011;23517;50.390;8.616;2024-02-21T02:55:44;12.90;;;3.90;;
37677;SDS011;23517;50.390;8.616;2024-02-21T02:58:11;14.02;;;3.67;;
37677;SDS011;23517;50.390;8.616;2024-02-21T03:00:38;11.05;;;4.15;;
37677;SDS011;23517;50.390;8.616;2024-02-21T03:03:05;9.13;;;3.67;;
37677;SDS011;23517;50.390;8.616;2024-02-21T03:05:34;10.75;;;3.95;;
37677;SDS011;23517;50.390;8.616;2024-02-21T03:08:01;11.90;;;3.90;;
37677;SDS011;23517;50.390;8.616;2024-02-21T03:10:28;12.15;;;4.07;;
37677;SDS011;23517;50.390;8.616;2024-02-21T03:12:55;10.18;;;3.80;;
37677;SDS011;23517;50.390;8.616;2024-02-21T03:15:23;14.80;;;3.90;;
37677;SDS011;23517;50.390;8.616;2024-02-21T03:17:50;12.18;;;3.63;;
37677;SDS011;23517;50.390;8.616;2024-02-21T03:20:17;10.35;;;3.67;;
37677;SDS011;23517;50.390;8.616;2024-02-21T03:22:45;11.10;;;4.22;;
37677;SDS011;23517;50.390;8.616;2024-02-21T03:25:15;12.38;;;3.67;;
37677;SDS011;23517;50.390;8.616;2024-02-21T03:27:42;11.10;;;3.83;;
37677;SDS011;23517;50.390;8.616;2024-02-21T03:30:09;9.30;;;3.80;;
37677;SDS011;23517;50.390;8.616;2024-02-21T03:32:36;11.93;;;4.10;;
37677;SDS011;23517;50.390;8.616;2024-02-21T03:35:04;10.80;;;3.88;;
37677;SDS011;23517;50.390;8.616;2024-02-21T03:37:31;9.32;;;3.88;;
37677;SDS011;23517;50.390;8.616;2024-02-21T03:39:58;12.50;;;3.58;;
37677;SDS011;23517;50.390;8.616;2024-02-21T03:42:25;8.32;;;3.85;;
37677;SDS011;23517;50.390;8.616;2024-02-21T03:44:52;12.27;;;4.10;;
37677;SDS011;23517;50.390;8.616;2024-02-21T03:47:19;7.60;;;3.40;;
37677;SDS011;23517;50.390;8.616;2024-02-21T03:49:45;8.65;;;3.60;;
37677;SDS011;23517;50.390;8.616;2024-02-21T03:52:12;11.10;;;4.18;;
37677;SDS011;23517;50.390;8.616;2024-02-21T03:54:39;11.20;;;3.60;;
37677;SDS011;23517;50.390;8.616;2024-02-21T03:57:05;9.45;;;4.20;;
37677;SDS011;23517;50.390;8.616;2024-02-21T03:59:32;11.50;;;3.83;;
37677;SDS011;23517;50.390;8.616;2024-02-21T04:01:59;7.38;;;3.63;;
37677;SDS011;23517;50.390;8.616;2024-02-21T04:04:28;11.75;;;3.85;;
37677;SDS011;23517;50.390;8.616;2024-02-21T04:06:54;10.32;;;3.67;;
37677;SDS011;23517;50.390;8.616;2024-02-21T04:09:21;8.98;;;3.65;;
37677;SDS011;23517;50.390;8.616;2024-02-21T04:11:50;9.23;;;3.40;;
37677;SDS011;23517;50.390;8.616;2024-02-21T04:14:18;9.82;;;3.90;;
37677;SDS011;23517;50.390;8.616;2024-02-21T04:16:44;7.13;;;3.20;;
37677;SDS011;23517;50.390;8.616;2024-02-21T04:19:11;10.23;;;3.42;;
37677;SDS011;23517;50.390;8.616;2024-02-21T04:21:40;11.65;;;3.70;;
37677;SDS011;23517;50.390;8.616;2024-02-21T04:24:07;15.18;;;4.10;;
37677;SDS011;23517;50.390;8.616;2024-02-21T04:26:33;9.25;;;3.80;;
37677;SDS011;23517;50.390;8.616;2024-02-21T04:29:01;8.45;;;3.28;;
37677;SDS011;23517;50.390;8.616;2024-02-21T04:31:28;13.75;;;4.28;;
37677;SDS011;23517;50.390;8.616;2024-02-21T04:33:56;14.10;;;3.70;;
37677;SDS011;23517;50.390;8.616;2024-02-21T04:36:25;10.25;;;4.07;;
37677;SDS011;23517;50.390;8.616;2024-02-21T04:38:51;12.05;;;4.43;;
37677;SDS011;23517;50.390;8.616;2024-02-21T04:41:18;10.65;;;3.63;;
37677;SDS011;23517;50.390;8.616;2024-02-21T04:43:46;9.75;;;3.60;;
37677;SDS011;23517;50.390;8.616;2024-02-21T04:46:15;10.70;;;3.70;;
37677;SDS011;23517;50.390;8.616;2024-02-21T04:48:42;11.70;;;3.75;;
37677;SDS011;23517;50.390;8.616;2024-02-21T04:51:11;14.50;;;4.15;;
37677;SDS011;23517;50.390;8.616;2024-02-21T04:53:39;14.85;;;4.63;;
37677;SDS011;23517;50.390;8.616;2024-02-21T04:56:05;11.70;;;3.85;;
37677;SDS011;23517;50.390;8.616;2024-02-21T04:58:32;10.10;;;3.92;;
37677;SDS011;23517;50.390;8.616;2024-02-21T05:00:59;10.95;;;3.90;;
37677;SDS011;23517;50.390;8.616;2024-02-21T05:03:28;9.45;;;3.70;;
37677;SDS011;23517;50.390;8.616;2024-02-21T05:05:55;10.00;;;3.95;;
37677;SDS011;23517;50.390;8.616;2024-02-21T05:08:23;8.13;;;3.20;;
37677;SDS011;23517;50.390;8.616;2024-02-21T05:10:50;12.68;;;3.97;;
37677;SDS011;23517;50.390;8.616;2024-02-21T05:13:16;13.45;;;3.92;;
37677;SDS011;23517;50.390;8.616;2024-02-21T05:15:43;9.85;;;3.88;;
37677;SDS011;23517;50.390;8.616;2024-02-21T05:18:10;12.23;;;3.63;;
37677;SDS011;23517;50.390;8.616;2024-02-21T05:20:37;12.13;;;3.72;;
37677;SDS011;23517;50.390;8.616;2024-02-21T05:23:03;13.63;;;3.95;;
37677;SDS011;23517;50.390;8.616;2024-02-21T05:25:30;9.35;;;3.50;;
37677;SDS011;23517;50.390;8.616;2024-02-21T05:27:57;10.20;;;3.72;;
37677;SDS011;23517;50.390;8.616;2024-02-21T05:30:28;11.32;;;3.88;;
37677;SDS011;23517;50.390;8.616;2024-02-21T05:32:56;11.95;;;4.25;;
37677;SDS011;23517;50.390;8.616;2024-02-21T05:35:27;14.57;;;4.10;;
37677;SDS011;23517;50.390;8.616;2024-02-21T05:37:54;8.55;;;3.88;;
37677;SDS011;23517;50.390;8.616;2024-02-21T05:40:21;10.15;;;3.92;;
37677;SDS011;23517;50.390;8.616;2024-02-21T05:42:48;10.52;;;3.47;;
37677;SDS011;23517;50.390;8.616;2024-02-21T05:45:17;9.65;;;4.18;;
37677;SDS011;23517;50.390;8.616;2024-02-21T05:47:44;10.23;;;4.00;;
37677;SDS011;23517;50.390;8.616;2024-02-21T05:50:13;13.68;;;4.35;;
37677;SDS011;23517;50.390;8.616;2024-02-21T05:52:40;14.82;;;4.68;;
37677;SDS011;23517;50.390;8.616;2024-02-21T05:55:07;10.18;;;4.15;;
37677;SDS011;23517;50.390;8.616;2024-02-21T05:57:35;11.23;;;3.85;;
37677;SDS011;23517;50.390;8.616;2024-02-21T06:00:05;12.75;;;3.67;;
37677;SDS011;23517;50.390;8.616;2024-02-21T06:02:32;11.88;;;3.40;;
37677;SDS011;23517;50.390;8.616;2024-02-21T06:04:59;13.25;;;4.45;;
37677;SDS011;23517;50.390;8.616;2024-02-21T06:07:26;13.05;;;3.95;;
37677;SDS011;23517;50.390;8.616;2024-02-21T06:09:53;10.93;;;3.45;;
37677;SDS011;23517;50.390;8.616;2024-02-21T06:12:20;15.48;;;3.83;;
37677;SDS011;23517;50.390;8.616;2024-02-21T06:14:47;19.00;;;4.40;;
37677;SDS011;23517;50.390;8.616;2024-02-21T06:17:14;10.38;;;3.60;;
37677;SDS011;23517;50.390;8.616;2024-02-21T06:19:41;13.48;;;4.38;;
37677;SDS011;23517;50.390;8.616;2024-02-21T06:22:09;9.13;;;3.67;;
37677;SDS011;23517;50.390;8.616;2024-02-21T06:24:37;14.40;;;4.07;;
37677;SDS011;23517;50.390;8.616;2024-02-21T06:27:04;13.52;;;3.80;;
37677;SDS011;23517;50.390;8.616;2024-02-21T06:29:36;12.18;;;3.72;;
37677;SDS011;23517;50.390;8.616;2024-02-21T06:32:03;11.48;;;3.92;;
37677;SDS011;23517;50.390;8.616;2024-02-21T06:34:31;10.90;;;3.70;;
37677;SDS011;23517;50.390;8.616;2024-02-21T06:37:00;13.85;;;4.20;;
37677;SDS011;23517;50.390;8.616;2024-02-21T06:39:27;12.30;;;3.42;;
37677;SDS011;23517;50.390;8.616;2024-02-21T06:41:55;13.07;;;3.65;;
37677;SDS011;23517;50.390;8.616;2024-02-21T06:44:27;13.23;;;4.00;;
37677;SDS011;23517;50.390;8.616;2024-02-21T06:46:54;12.18;;;3.95;;
37677;SDS011;23517;50.390;8.616;2024-02-21T06:49:21;11.57;;;4.45;;
37677;SDS011;23517;50.390;8.616;2024-02-21T06:51:48;10.95;;;4.22;;
37677;SDS011;23517;50.390;8.616;2024-02-21T06:54:15;15.77;;;4.30;;
37677;SDS011;23517;50.390;8.616;2024-02-21T06:56:42;20.30;;;5.90;;
37677;SDS011;23517;50.390;8.616;2024-02-21T06:59:08;15.00;;;4.93;;
37677;SDS011;23517;50.390;8.616;2024-02-21T07:01:35;11.27;;;4.40;;
37677;SDS011;23517;50.390;8.616;2024-02-21T07:04:02;11.15;;;3.83;;
37677;SDS011;23517;50.390;8.616;2024-02-21T07:06:29;13.05;;;4.65;;
37677;SDS011;23517;50.390;8.616;2024-02-21T07:09:00;15.02;;;5.22;;
37677;SDS011;23517;50.390;8.616;2024-02-21T07:11:29;21.00;;;7.53;;
37677;SDS011;23517;50.390;8.616;2024-02-21T07:13:56;9.63;;;4.65;;
37677;SDS011;23517;50.390;8.616;2024-02-21T07:16:23;11.70;;;5.00;;
37677;SDS011;23517;50.390;8.616;2024-02-21T07:18:49;14.55;;;5.43;;
37677;SDS011;23517;50.390;8.616;2024-02-21T07:21:16;15.55;;;5.05;;
37677;SDS011;23517;50.390;8.616;2024-02-21T07:23:43;12.98;;;4.38;;
37677;SDS011;23517;50.390;8.616;2024-02-21T07:26:11;11.93;;;5.45;;
37677;SDS011;23517;50.390;8.616;2024-02-21T07:28:37;15.20;;;5.30;;
37677;SDS011;23517;50.390;8.616;2024-02-21T07:31:04;10.43;;;5.10;;
37677;SDS011;23517;50.390;8.616;2024-02-21T07:33:31;9.25;;;4.68;;
37677;SDS011;23517;50.390;8.616;2024-02-21T07:35:58;10.15;;;4.15;;
37677;SDS011;23517;50.390;8.616;2024-02-21T07:38:25;8.05;;;3.72;;
37677;SDS011;23517;50.390;8.616;2024-02-21T07:40:52;7.82;;;3.70;;
37677;SDS011;23517;50.390;8.616;2024-02-21T07:43:18;13.35;;;4.25;;
37677;SDS011;23517;50.390;8.616;2024-02-21T07:45:45;10.10;;;3.50;;
37677;SDS011;23517;50.390;8.616;2024-02-21T07:48:12;11.75;;;3.75;;
37677;SDS011;23517;50.390;8.616;2024-02-21T07:50:39;9.93;;;3.92;;
37677;SDS011;23517;50.390;8.616;2024-02-21T07:53:05;13.20;;;3.78;;
37677;SDS011;23517;50.390;8.616;2024-02-21T07:55:34;10.38;;;3.85;;
37677;SDS011;23517;50.390;8.616;2024-02-21T07:58:01;12.02;;;3.83;;
37677;SDS011;23517;50.390;8.616;2024-02-21T08:00:28;12.40;;;3.80;;
37677;SDS011;23517;50.390;8.616;2024-02-21T08:02:56;10.45;;;3.28;;
37677;SDS011;23517;50.390;8.616;2024-02-21T08:05:23;9.85;;;3.38;;
37677;SDS011;23517;50.390;8.616;2024-02-21T08:07:50;10.25;;;3.67;;
37677;SDS011;23517;50.390;8.616;2024-02-21T08:10:18;8.45;;;3.03;;
37677;SDS011;23517;50.390;8.616;2024-02-21T08:12:44;11.25;;;3.85;;
37677;SDS011;23517;50.390;8.616;2024-02-21T08:15:11;11.90;;;3.58;;
37677;SDS011;23517;50.390;8.616;2024-02-21T08:17:40;14.90;;;3.65;;
37677;SDS011;23517;50.390;8.616;2024-02-21T08:20:07;7.93;;;3.50;;
37677;SDS011;23517;50.390;8.616;2024-02-21T08:22:37;7.30;;;3.33;;
37677;SDS011;23517;50.390;8.616;2024-02-21T08:25:04;8.45;;;3.60;;
37677;SDS011;23517;50.390;8.616;2024-02-21T08:27:31;6.93;;;3.33;;
37677;SDS011;23517;50.390;8.616;2024-02-21T08:29:58;10.05;;;3.50;;
37677;SDS011;23517;50.390;8.616;2024-02-21T08:32:25;8.95;;;3.42;;
37677;SDS011;23517;50.390;8.616;2024-02-21T08:34:52;8.70;;;3.03;;
37677;SDS011;23517;50.390;8.616;2024-02-21T08:37:20;9.98;;;3.55;;
37677;SDS011;23517;50.390;8.616;2024-02-21T08:39:47;10.02;;;3.15;;
37677;SDS011;23517;50.390;8.616;2024-02-21T08:42:14;9.95;;;3.58;;
37677;SDS011;23517;50.390;8.616;2024-02-21T08:44:41;12.00;;;3.22;;
37677;SDS011;23517;50.390;8.616;2024-02-21T08:47:09;12.00;;;3.88;;
37677;SDS011;23517;50.390;8.616;2024-02-21T08:49:36;9.15;;;2.95;;
37677;SDS011;23517;50.390;8.616;2024-02-21T08:52:03;10.32;;;3.22;;
37677;SDS011;23517;50.390;8.616;2024-02-21T08:54:31;10.93;;;2.85;;
37677;SDS011;23517;50.390;8.616;2024-02-21T08:56:59;6.07;;;2.53;;
37677;SDS011;23517;50.390;8.616;2024-02-21T08:59:26;10.27;;;2.90;;
37677;SDS011;23517;50.390;8.616;2024-02-21T09:01:53;9.52;;;3.08;;
37677;SDS011;23517;50.390;8.616;2024-02-21T09:04:20;8.57;;;3.00;;
37677;SDS011;23517;50.390;8.616;2024-02-21T09:06:47;11.20;;;2.85;;
37677;SDS011;23517;50.390;8.616;2024-02-21T09:09:14;9.35;;;2.95;;
37677;SDS011;23517;50.390;8.616;2024-02-21T09:11:41;10.63;;;3.35;;
37677;SDS011;23517;50.390;8.616;2024-02-21T09:14:08;10.77;;;2.92;;
37677;SDS011;23517;50.390;8.616;2024-02-21T09:16:35;8.65;;;3.20;;
37677;SDS011;23517;50.390;8.616;2024-02-21T09:19:01;11.27;;;3.17;;
37677;SDS011;23517;50.390;8.616;2024-02-21T09:21:28;9.40;;;2.80;;
37677;SDS011;23517;50.390;8.616;2024-02-21T09:23:55;7.32;;;2.80;;
37677;SDS011;23517;50.390;8.616;2024-02-21T09:26:25;11.88;;;3.30;;
37677;SDS011;23517;50.390;8.616;2024-02-21T09:28:53;10.15;;;2.80;;
37677;SDS011;23517;50.390;8.616;2024-02-21T09:31:20;13.05;;;3.08;;
37677;SDS011;23517;50.390;8.616;2024-02-21T09:33:47;5.93;;;2.72;;
37677;SDS011;23517;50.390;8.616;2024-02-21T09:36:14;9.00;;;2.80;;
37677;SDS011;23517;50.390;8.616;2024-02-21T09:38:41;9.88;;;2.70;;
37677;SDS011;23517;50.390;8.616;2024-02-21T09:41:17;7.30;;;2.63;;
37677;SDS011;23517;50.390;8.616;2024-02-21T09:43:56;9.75;;;3.05;;
37677;SDS011;23517;50.390;8.616;2024-02-21T09:49:53;6.70;;;2.53;;
37677;SDS011;23517;50.390;8.616;2024-02-21T09:52:02;9.40;;;2.70;;
37677;SDS011;23517;50.390;8.616;2024-02-21T09:54:34;8.07;;;2.85;;
37677;SDS011;23517;50.390;8.616;2024-02-21T09:57:04;11.55;;;3.30;;
37677;SDS011;23517;50.390;8.616;2024-02-21T09:59:32;6.40;;;2.83;;
37677;SDS011;23517;50.390;8.616;2024-02-21T10:02:00;9.35;;;2.72;;
37677;SDS011;23517;50.390;8.616;2024-02-21T10:04:28;9.20;;;2.70;;
37677;SDS011;23517;50.390;8.616;2024-02-21T10:06:56;11.45;;;2.88;;
37677;SDS011;23517;50.390;8.616;2024-02-21T10:09:27;8.75;;;2.65;;
37677;SDS011;23517;50.390;8.616;2024-02-21T10:12:10;11.23;;;3.40;;
37677;SDS011;23517;50.390;8.616;2024-02-21T10:14:39;7.40;;;2.60;;
37677;SDS011;23517;50.390;8.616;2024-02-21T10:17:08;8.32;;;2.53;;
37677;SDS011;23517;50.390;8.616;2024-02-21T10:19:42;7.78;;;2.97;;
37677;SDS011;23517;50.390;8.616;2024-02-21T10:22:08;9.25;;;2.65;;
37677;SDS011;23517;50.390;8.616;2024-02-21T10:24:36;11.48;;;3.22;;
37677;SDS011;23517;50.390;8.616;2024-02-21T10:27:10;9.18;;;3.38;;
37677;SDS011;23517;50.390;8.616;2024-02-21T10:29:38;8.35;;;3.00;;
37677;SDS011;23517;50.390;8.616;2024-02-21T10:32:07;10.88;;;2.88;;
37677;SDS011;23517;50.390;8.616;2024-02-21T10:34:36;7.78;;;2.70;;
37677;SDS011;23517;50.390;8.616;2024-02-21T10:37:06;11.13;;;3.22;;
37677;SDS011;23517;50.390;8.616;2024-02-21T10:39:35;8.30;;;2.85;;
37677;SDS011;23517;50.390;8.616;2024-02-21T10:42:06;9.63;;;3.20;;
37677;SDS011;23517;50.390;8.616;2024-02-21T10:44:36;10.93;;;3.65;;
37677;SDS011;23517;50.390;8.616;2024-02-21T10:47:09;8.05;;;2.75;;
37677;SDS011;23517;50.390;8.616;2024-02-21T10:49:39;8.85;;;3.20;;
37677;SDS011;23517;50.390;8.616;2024-02-21T10:57:16;7.60;;;3.40;;
37677;SDS011;23517;50.390;8.616;2024-02-21T10:59:46;8.32;;;3.70;;
37677;SDS011;23517;50.390;8.616;2024-02-21T11:02:15;8.73;;;3.78;;
37677;SDS011;23517;50.390;8.616;2024-02-21T11:04:43;9.60;;;4.03;;
37677;SDS011;23517;50.390;8.616;2024-02-21T11:07:11;10.35;;;3.95;;
37677;SDS011;23517;50.390;8.616;2024-02-21T11:09:39;11.18;;;4.18;;
37677;SDS011;23517;50.390;8.616;2024-02-21T11:12:06;7.07;;;3.67;;
37677;SDS011;23517;50.390;8.616;2024-02-21T11:14:34;11.27;;;4.40;;
37677;SDS011;23517;50.390;8.616;2024-02-21T11:17:15;8.95;;;3.85;;
37677;SDS011;23517;50.390;8.616;2024-02-21T11:19:44;10.00;;;4.10;;
37677;SDS011;23517;50.390;8.616;2024-02-21T11:22:18;12.38;;;4.68;;
37677;SDS011;23517;50.390;8.616;2024-02-21T11:24:48;10.48;;;5.00;;
37677;SDS011;23517;50.390;8.616;2024-02-21T11:27:15;10.30;;;4.75;;
37677;SDS011;23517;50.390;8.616;2024-02-21T11:29:58;16.85;;;4.60;;
37677;SDS011;23517;50.390;8.616;2024-02-21T11:32:25;10.48;;;4.70;;
37677;SDS011;23517;50.390;8.616;2024-02-21T11:35:00;7.93;;;4.00;;
37677;SDS011;23517;50.390;8.616;2024-02-21T11:37:34;11.60;;;4.45;;
37677;SDS011;23517;50.390;8.616;2024-02-21T11:40:06;9.85;;;4.38;;
37677;SDS011;23517;50.390;8.616;2024-02-21T11:42:36;12.93;;;4.68;;
37677;SDS011;23517;50.390;8.616;2024-02-21T11:45:02;7.30;;;4.05;;
37677;SDS011;23517;50.390;8.616;2024-02-21T11:47:29;10.95;;;3.97;;
37677;SDS011;23517;50.390;8.616;2024-02-21T11:49:56;10.30;;;4.10;;
37677;SDS011;23517;50.390;8.616;2024-02-21T11:52:24;9.60;;;3.90;;
37677;SDS011;23517;50.390;8.616;2024-02-21T11:54:53;9.65;;;3.92;;
37677;SDS011;23517;50.390;8.616;2024-02-21T11:57:21;10.48;;;4.00;;
37677;SDS011;23517;50.390;8.616;2024-02-21T11:59:48;7.47;;;3.75;;
37677;SDS011;23517;50.390;8.616;2024-02-21T12:02:22;9.57;;;3.55;;
37677;SDS011;23517;50.390;8.616;2024-02-21T12:04:49;11.90;;;3.90;;
37677;SDS011;23517;50.390;8.616;2024-02-21T12:07:16;8.95;;;3.58;;
37677;SDS011;23517;50.390;8.616;2024-02-21T12:09:44;7.30;;;3.30;;
37677;SDS011;23517;50.390;8.616;2024-02-21T12:12:10;8.70;;;3.13;;
37677;SDS011;23517;50.390;8.616;2024-02-21T12:14:37;9.15;;;3.10;;
37677;SDS011;23517;50.390;8.616;2024-02-21T12:17:04;9.25;;;3.05;;
37677;SDS011;23517;50.390;8.616;2024-02-21T12:19:32;9.50;;;3.40;;
37677;SDS011;23517;50.390;8.616;2024-02-21T12:21:59;7.63;;;3.13;;
37677;SDS011;23517;50.390;8.616;2024-02-21T12:24:27;9.88;;;3.10;;
37677;SDS011;23517;50.390;8.616;2024-02-21T12:26:55;8.88;;;3.08;;
37677;SDS011;23517;50.390;8.616;2024-02-21T12:29:23;5.50;;;2.80;;
37677;SDS011;23517;50.390;8.616;2024-02-21T12:31:51;9.93;;;2.92;;
37677;SDS011;23517;50.390;8.616;2024-02-21T12:34:20;10.90;;;3.28;;
37677;SDS011;23517;50.390;8.616;2024-02-21T12:37:04;7.35;;;2.72;;
37677;SDS011;23517;50.390;8.616;2024-02-21T12:39:31;8.68;;;3.00;;
37677;SDS011;23517;50.390;8.616;2024-02-21T12:41:59;6.65;;;2.80;;
37677;SDS011;23517;50.390;8.616;2024-02-21T12:44:26;7.20;;;2.80;;
37677;SDS011;23517;50.390;8.616;2024-02-21T12:46:54;7.20;;;2.90;;
37677;SDS011;23517;50.390;8.616;2024-02-21T12:49:21;8.35;;;2.80;;
37677;SDS011;23517;50.390;8.616;2024-02-21T12:51:48;7.10;;;2.63;;
37677;SDS011;23517;50.390;8.616;2024-02-21T12:54:15;10.00;;;3.10;;
37677;SDS011;23517;50.390;8.616;2024-02-21T12:56:42;7.75;;;2.50;;
37677;SDS011;23517;50.390;8.616;2024-02-21T12:59:09;7.07;;;2.28;;
37677;SDS011;23517;50.390;8.616;2024-02-21T13:01:36;6.40;;;2.47;;
37677;SDS011;23517;50.390;8.616;2024-02-21T13:04:04;5.38;;;2.20;;
37677;SDS011;23517;50.390;8.616;2024-02-21T13:06:31;5.68;;;2.03;;
37677;SDS011;23517;50.390;8.616;2024-02-21T13:08:58;4.50;;;1.98;;
37677;SDS011;23517;50.390;8.616;2024-02-21T13:11:25;9.35;;;3.70;;
37677;SDS011;23517;50.390;8.616;2024-02-21T13:13:57;9.23;;;3.70;;
37677;SDS011;23517;50.390;8.616;2024-02-21T13:16:24;4.97;;;2.20;;
37677;SDS011;23517;50.390;8.616;2024-02-21T13:18:52;5.18;;;2.20;;
37677;SDS011;23517;50.390;8.616;2024-02-21T13:21:19;7.28;;;2.35;;
37677;SDS011;23517;50.390;8.616;2024-02-21T13:23:45;5.57;;;2.00;;
37677;SDS011;23517;50.390;8.616;2024-02-21T13:26:13;6.32;;;2.40;;
37677;SDS011;23517;50.390;8.616;2024-02-21T13:28:40;6.38;;;1.83;;
37677;SDS011;23517;50.390;8.616;2024-02-21T13:31:07;8.63;;;1.85;;
37677;SDS011;23517;50.390;8.616;2024-02-21T13:33:33;8.23;;;1.92;;
37677;SDS011;23517;50.390;8.616;2024-02-21T13:36:00;5.60;;;2.15;;
37677;SDS011;23517;50.390;8.616;2024-02-21T13:38:28;7.85;;;2.00;;
37677;SDS011;23517;50.390;8.616;2024-02-21T13:40:55;7.78;;;2.00;;
37677;SDS011;23517;50.390;8.616;2024-02-21T13:43:22;7.43;;;2.22;;
37677;SDS011;23517;50.390;8.616;2024-02-21T13:45:55;7.45;;;2.38;;
37677;SDS011;23517;50.390;8.616;2024-02-21T13:48:28;6.30;;;2.25;;
37677;SDS011;23517;50.390;8.616;2024-02-21T13:50:56;8.98;;;2.65;;
37677;SDS011;23517;50.390;8.616;2024-02-21T13:53:23;7.13;;;2.35;;
37677;SDS011;23517;50.390;8.616;2024-02-21T13:55:51;9.10;;;2.75;;
37677;SDS011;23517;50.390;8.616;2024-02-21T13:58:18;7.40;;;2.20;;
37677;SDS011;23517;50.390;8.616;2024-02-21T14:00:46;9.52;;;2.95;;
37677;SDS011;23517;50.390;8.616;2024-02-21T14:03:12;11.60;;;2.70;;
37677;SDS011;23517;50.390;8.616;2024-02-21T14:05:40;8.95;;;2.42;;
37677;SDS011;23517;50.390;8.616;2024-02-21T14:08:08;9.70;;;2.22;;
37677;SDS011;23517;50.390;8.616;2024-02-21T14:10:36;7.05;;;2.25;;
37677;SDS011;23517;50.390;8.616;2024-02-21T14:13:03;6.03;;;2.10;;
37677;SDS011;23517;50.390;8.616;2024-02-21T14:15:30;7.28;;;1.95;;
37677;SDS011;23517;50.390;8.616;2024-02-21T14:17:57;8.13;;;2.28;;
37677;SDS011;23517;50.390;8.616;2024-02-21T14:20:24;5.07;;;1.90;;
37677;SDS011;23517;50.390;8.616;2024-02-21T14:22:51;7.07;;;2.20;;
37677;SDS011;23517;50.390;8.616;2024-02-21T14:25:18;6.82;;;1.98;;
37677;SDS011;23517;50.390;8.616;2024-02-21T14:27:45;7.72;;;2.13;;
37677;SDS011;23517;50.390;8.616;2024-02-21T14:30:11;9.25;;;2.45;;
37677;SDS011;23517;50.390;8.616;2024-02-21T14:32:40;6.60;;;2.10;;
37677;SDS011;23517;50.390;8.616;2024-02-21T14:35:10;11.00;;;2.55;;
37677;SDS011;23517;50.390;8.616;2024-02-21T14:37:37;6.65;;;2.08;;
37677;SDS011;23517;50.390;8.616;2024-02-21T14:40:04;6.63;;;2.30;;
37677;SDS011;23517;50.390;8.616;2024-02-21T14:42:32;10.10;;;2.58;;
37677;SDS011;23517;50.390;8.616;2024-02-21T14:44:59;9.70;;;2.33;;
37677;SDS011;23517;50.390;8.616;2024-02-21T14:47:31;7.60;;;2.17;;
37677;SDS011;23517;50.390;8.616;2024-02-21T14:49:59;9.63;;;2.67;;
37677;SDS011;23517;50.390;8.616;2024-02-21T14:52:27;7.40;;;2.15;;